createdAt,value
2022-09-30T00:01:44.431Z,10.99
2022-09-30T00:04:16.257Z,10.83
2022-09-30T00:06:44.906Z,10.88
2022-09-30T00:09:13.139Z,11.01
2022-09-30T00:11:44.015Z,10.90
2022-09-30T00:14:17.536Z,10.61
2022-09-30T00:16:46.725Z,10.59
2022-09-30T00:19:14.998Z,10.59
2022-09-30T00:21:43.501Z,10.38
2022-09-30T00:24:11.527Z,10.28
2022-09-30T00:26:39.729Z,10.37
2022-09-30T00:29:09.009Z,10.33
2022-09-30T00:31:38.208Z,10.47
2022-09-30T00:34:11.424Z,10.28
2022-09-30T00:36:43.558Z,10.23
2022-09-30T00:39:14.765Z,10.26
2022-09-30T00:41:43.396Z,10.34
2022-09-30T00:44:51.737Z,10.21
2022-09-30T00:47:32.078Z,10.21
2022-09-30T00:50:04.412Z,10.21
2022-09-30T00:52:33.403Z,10.34
2022-09-30T00:55:05.040Z,10.33
2022-09-30T00:57:33.559Z,10.53
2022-09-30T01:00:03.589Z,10.43
2022-09-30T01:02:32.162Z,10.39
2022-09-30T01:05:00.030Z,10.49
2022-09-30T01:07:29.134Z,10.47
2022-09-30T01:09:58.244Z,10.43
2022-09-30T01:12:28.028Z,10.57
2022-09-30T01:14:58.252Z,10.60
2022-09-30T01:17:39.042Z,10.70
2022-09-30T01:20:37.692Z,10.78
2022-09-30T01:23:33.260Z,10.67
2022-09-30T01:26:33.902Z,10.55
2022-09-30T01:29:20.215Z,10.68
2022-09-30T01:31:58.518Z,10.60
2022-09-30T01:34:37.512Z,10.56
2022-09-30T01:37:15.422Z,10.61
2022-09-30T01:39:52.711Z,10.60
2022-09-30T01:42:27.133Z,10.63
2022-09-30T01:45:03.906Z,10.75
2022-09-30T01:47:38.225Z,10.66
2022-09-30T01:50:13.717Z,10.72
2022-09-30T01:52:50.335Z,10.70
2022-09-30T01:55:24.600Z,10.63
2022-09-30T01:57:58.804Z,10.83
2022-09-30T02:00:27.838Z,10.85
2022-09-30T02:03:02.901Z,10.88
2022-09-30T02:05:39.455Z,10.88
2022-09-30T02:08:13.517Z,10.73
2022-09-30T02:10:49.054Z,10.83
2022-09-30T02:13:26.843Z,10.98
2022-09-30T02:15:58.608Z,10.76
2022-09-30T02:18:34.869Z,10.92
2022-09-30T02:21:06.700Z,10.77
2022-09-30T02:23:40.751Z,11.02
2022-09-30T02:26:14.837Z,10.78
2022-09-30T02:28:48.244Z,10.73
2022-09-30T02:31:19.932Z,10.68
2022-09-30T02:33:54.388Z,10.73
2022-09-30T02:36:29.123Z,10.86
2022-09-30T02:39:02.655Z,10.62
2022-09-30T02:41:36.185Z,10.72
2022-09-30T02:44:04.513Z,10.79
2022-09-30T02:46:42.961Z,10.69
2022-09-30T02:49:20.521Z,10.55
2022-09-30T02:52:09.516Z,10.66
2022-09-30T02:54:49.626Z,10.44
2022-09-30T02:57:23.348Z,10.37
2022-09-30T02:59:54.123Z,10.41
2022-09-30T03:02:27.601Z,10.32
2022-09-30T03:04:57.780Z,10.20
2022-09-30T03:07:25.994Z,10.06
2022-09-30T03:09:58.333Z,9.88
2022-09-30T03:12:40.329Z,9.98
2022-09-30T03:15:23.241Z,9.94
2022-09-30T03:18:38.926Z,10.05
2022-09-30T03:21:22.158Z,10.06
2022-09-30T03:24:16.708Z,9.89
2022-09-30T03:26:53.936Z,10.02
2022-09-30T03:29:29.197Z,9.96
2022-09-30T03:32:11.409Z,9.95
2022-09-30T03:34:52.208Z,9.96
2022-09-30T03:37:30.561Z,10.01
2022-09-30T03:40:03.990Z,10.05
2022-09-30T03:42:39.455Z,10.13
2022-09-30T03:45:14.540Z,10.14
2022-09-30T03:47:47.267Z,10.18
2022-09-30T03:50:20.283Z,10.04
2022-09-30T03:52:51.002Z,10.05
2022-09-30T03:55:20.311Z,10.04
2022-09-30T03:57:49.507Z,10.12
2022-09-30T04:00:19.358Z,10.12
2022-09-30T04:02:47.397Z,10.07
2022-09-30T04:05:15.691Z,10.16
2022-09-30T04:07:43.650Z,10.15
2022-09-30T04:10:12.938Z,10.07
2022-09-30T04:12:40.783Z,10.11
2022-09-30T04:15:10.247Z,10.17
2022-09-30T04:17:38.079Z,9.93
2022-09-30T04:20:07.129Z,9.86
2022-09-30T04:22:35.034Z,9.78
2022-09-30T04:25:03.185Z,9.89
2022-09-30T04:27:32.442Z,9.68
2022-09-30T04:30:01.016Z,9.64
2022-09-30T04:32:28.993Z,9.59
2022-09-30T04:34:57.558Z,9.75
2022-09-30T04:37:25.464Z,9.63
2022-09-30T04:39:54.033Z,9.65
2022-09-30T04:42:21.882Z,9.60
2022-09-30T04:44:51.773Z,9.58
2022-09-30T04:47:19.615Z,9.63
2022-09-30T04:49:47.898Z,9.70
2022-09-30T04:52:15.749Z,9.58
2022-09-30T04:54:44.253Z,9.73
2022-09-30T04:57:14.072Z,9.80
2022-09-30T04:59:42.704Z,9.75
2022-09-30T05:02:12.852Z,9.68
2022-09-30T05:04:41.369Z,9.84
2022-09-30T05:07:09.215Z,9.83
2022-09-30T05:09:37.785Z,9.76
2022-09-30T05:12:05.756Z,9.66
2022-09-30T05:14:35.001Z,9.84
2022-09-30T05:17:03.097Z,9.86
2022-09-30T05:19:33.033Z,9.78
2022-09-30T05:22:00.879Z,9.87
2022-09-30T05:24:30.404Z,9.94
2022-09-30T05:26:58.281Z,9.98
2022-09-30T05:29:26.610Z,9.95
2022-09-30T05:31:54.924Z,10.20
2022-09-30T05:34:26.146Z,10.06
2022-09-30T05:36:57.854Z,10.21
2022-09-30T05:39:31.276Z,10.24
2022-09-30T05:41:59.609Z,10.29
2022-09-30T05:44:34.392Z,10.37
2022-09-30T05:47:02.827Z,10.49
2022-09-30T05:49:34.836Z,10.78
2022-09-30T05:52:05.306Z,10.66
2022-09-30T05:54:34.201Z,10.71
2022-09-30T05:57:04.803Z,10.98
2022-09-30T05:59:34.710Z,10.76
2022-09-30T06:02:02.728Z,11.04
2022-09-30T06:04:30.746Z,10.53
2022-09-30T06:06:58.701Z,10.51
2022-09-30T06:09:28.915Z,10.50
2022-09-30T06:11:58.073Z,11.21
2022-09-30T06:14:28.553Z,10.87
2022-09-30T06:16:56.503Z,11.53
2022-09-30T06:19:24.971Z,11.02
2022-09-30T06:21:53.006Z,10.94
2022-09-30T06:24:21.934Z,11.25
2022-09-30T06:26:51.281Z,11.33
2022-09-30T06:29:19.938Z,11.70
2022-09-30T06:31:48.476Z,11.82
2022-09-30T06:34:17.262Z,12.17
2022-09-30T06:36:45.237Z,11.93
2022-09-30T06:39:14.052Z,12.37
2022-09-30T06:41:44.033Z,12.49
2022-09-30T06:44:27.071Z,12.39
2022-09-30T06:46:55.536Z,11.95
2022-09-30T06:49:24.872Z,12.08
2022-09-30T06:51:53.235Z,11.88
2022-09-30T06:54:22.260Z,12.09
2022-09-30T06:56:50.536Z,12.02
2022-09-30T06:59:19.034Z,12.26
2022-09-30T07:01:48.432Z,12.10
2022-09-30T07:04:16.673Z,12.07
2022-09-30T07:06:45.516Z,11.97
2022-09-30T07:09:14.826Z,12.01
2022-09-30T07:11:42.829Z,11.66
2022-09-30T07:14:13.724Z,11.49
2022-09-30T07:16:41.713Z,11.25
2022-09-30T07:19:12.500Z,11.32
2022-09-30T07:21:40.423Z,11.93
2022-09-30T07:24:09.683Z,12.12
2022-09-30T07:26:37.591Z,12.09
2022-09-30T07:29:07.586Z,12.35
2022-09-30T07:31:36.025Z,12.65
2022-09-30T07:34:07.570Z,12.97
2022-09-30T07:36:38.307Z,12.96
2022-09-30T07:39:10.175Z,13.08
2022-09-30T07:41:41.174Z,13.25
2022-09-30T07:44:14.930Z,13.76
2022-09-30T07:49:15.469Z,14.60
2022-09-30T07:51:45.605Z,14.01
2022-09-30T07:54:16.207Z,13.73
2022-09-30T07:59:36.212Z,14.09
2022-09-30T08:02:04.754Z,14.59
2022-09-30T08:04:33.405Z,16.76
2022-09-30T08:07:04.784Z,17.68
2022-09-30T08:09:33.121Z,18.97
2022-09-30T08:12:03.446Z,19.65
2022-09-30T08:14:32.193Z,20.54
2022-09-30T08:17:00.669Z,20.74
2022-09-30T08:19:31.217Z,23.29
2022-09-30T08:21:59.323Z,22.58
2022-09-30T08:24:29.013Z,23.34
2022-09-30T08:26:57.077Z,24.05
2022-09-30T08:29:50.009Z,24.03
2022-09-30T08:32:13.756Z,25.77
2022-09-30T08:34:42.376Z,25.01
2022-09-30T08:37:11.081Z,24.68
2022-09-30T08:39:42.666Z,24.71
2022-09-30T08:42:37.488Z,25.54
2022-09-30T08:45:21.276Z,25.68
2022-09-30T08:47:58.106Z,25.23
2022-09-30T08:50:36.144Z,25.37
2022-09-30T08:53:10.846Z,24.71
2022-09-30T08:55:43.929Z,25.30
2022-09-30T08:58:27.877Z,24.93
2022-09-30T09:01:00.539Z,24.86
2022-09-30T09:03:33.989Z,25.41
2022-09-30T09:06:17.138Z,24.04
2022-09-30T09:09:02.160Z,24.63
2022-09-30T09:11:45.478Z,23.62
2022-09-30T09:14:28.965Z,24.24
2022-09-30T09:17:15.994Z,24.40
2022-09-30T09:19:53.706Z,24.24
2022-09-30T09:22:29.632Z,23.75
2022-09-30T09:24:59.432Z,23.81
2022-09-30T09:27:38.617Z,23.83
2022-09-30T09:30:20.198Z,21.91
2022-09-30T09:32:53.363Z,22.41
2022-09-30T09:35:35.140Z,23.29
2022-09-30T09:38:26.089Z,22.18
2022-09-30T09:41:13.167Z,21.59
2022-09-30T09:43:52.642Z,21.99
2022-09-30T09:46:28.698Z,21.89
2022-09-30T09:49:31.378Z,22.31
2022-09-30T09:52:26.157Z,21.07
2022-09-30T09:54:56.946Z,20.89
2022-09-30T09:57:28.272Z,21.25
2022-09-30T10:02:34.262Z,20.84
2022-09-30T10:05:04.038Z,21.23
2022-09-30T10:07:34.736Z,20.68
2022-09-30T10:10:23.352Z,20.91
2022-09-30T10:12:51.964Z,21.17
2022-09-30T10:15:24.640Z,21.38
2022-09-30T10:17:55.637Z,21.16
2022-09-30T10:20:33.189Z,21.11
2022-09-30T10:23:19.017Z,21.12
2022-09-30T10:25:57.693Z,20.60
2022-09-30T10:28:28.162Z,19.21
2022-09-30T10:31:03.779Z,20.21
2022-09-30T10:33:41.773Z,20.63
2022-09-30T10:36:13.919Z,21.03
2022-09-30T10:38:59.968Z,20.67
2022-09-30T10:41:33.381Z,20.75
2022-09-30T10:44:03.617Z,20.53
2022-09-30T10:46:39.065Z,20.96
2022-09-30T10:49:12.949Z,20.63
2022-09-30T10:51:47.192Z,20.69
2022-09-30T10:54:51.275Z,19.76
2022-09-30T10:57:24.479Z,19.35
2022-09-30T10:59:56.898Z,20.44
2022-09-30T11:02:34.430Z,20.01
2022-09-30T11:05:15.181Z,20.01
2022-09-30T11:07:51.473Z,19.79
2022-09-30T11:10:33.226Z,19.92
2022-09-30T11:13:09.011Z,18.90
2022-09-30T11:15:44.165Z,19.73
2022-09-30T11:18:23.858Z,20.04
2022-09-30T11:20:57.157Z,20.37
2022-09-30T11:23:32.009Z,19.23
2022-09-30T11:26:06.953Z,19.36
2022-09-30T11:28:51.730Z,19.47
2022-09-30T11:31:31.314Z,19.36
2022-09-30T11:34:21.430Z,19.32
2022-09-30T11:36:59.758Z,19.77
2022-09-30T11:40:01.022Z,20.82
2022-09-30T11:42:37.218Z,21.11
2022-09-30T11:45:20.797Z,21.54
2022-09-30T11:48:03.192Z,21.26
2022-09-30T11:50:46.617Z,21.18
2022-09-30T11:53:22.641Z,21.37
2022-09-30T11:56:05.467Z,21.79
2022-09-30T11:58:41.621Z,21.39
2022-09-30T12:01:21.577Z,21.27
2022-09-30T12:03:59.038Z,20.67
2022-09-30T12:06:35.006Z,20.56
2022-09-30T12:09:15.358Z,21.38
2022-09-30T12:11:50.743Z,21.29
2022-09-30T12:14:24.390Z,21.12
2022-09-30T12:16:52.795Z,21.07
2022-09-30T12:19:26.331Z,21.76
2022-09-30T12:22:02.685Z,22.00
2022-09-30T12:24:36.725Z,22.30
2022-09-30T12:27:12.721Z,21.32
2022-09-30T12:30:01.847Z,21.32
2022-09-30T12:33:03.146Z,21.36
2022-09-30T12:36:11.486Z,20.41
2022-09-30T12:39:09.718Z,19.28
2022-09-30T12:41:53.641Z,19.65
2022-09-30T12:44:45.219Z,19.99
2022-09-30T12:47:28.694Z,20.66
2022-09-30T12:49:59.592Z,20.63
2022-09-30T12:52:33.945Z,20.72
2022-09-30T12:55:09.073Z,20.94
2022-09-30T12:57:41.377Z,21.49
2022-09-30T13:00:17.695Z,21.03
2022-09-30T13:02:50.113Z,21.27
2022-09-30T13:05:50.217Z,21.88
2022-09-30T13:08:50.914Z,22.14
2022-09-30T13:11:41.340Z,20.98
2022-09-30T13:14:26.225Z,21.46
2022-09-30T13:17:25.816Z,21.10
2022-09-30T13:19:55.889Z,21.61
2022-09-30T13:23:00.328Z,22.09
2022-09-30T13:25:28.845Z,21.85
2022-09-30T13:28:32.231Z,21.32
2022-09-30T13:31:14.864Z,20.90
2022-09-30T13:33:46.242Z,20.64
2022-09-30T13:36:28.481Z,20.88
2022-09-30T13:39:19.904Z,21.05
2022-09-30T13:41:58.645Z,21.65
2022-09-30T13:44:35.297Z,21.83
2022-09-30T13:47:16.473Z,21.54
2022-09-30T13:49:52.335Z,21.10
2022-09-30T13:52:26.011Z,20.62
2022-09-30T13:54:55.830Z,21.78
2022-09-30T13:57:30.022Z,21.66
2022-09-30T14:00:07.255Z,21.18
2022-09-30T14:02:56.003Z,21.13
2022-09-30T14:05:40.230Z,20.95
2022-09-30T14:08:25.910Z,21.42
2022-09-30T14:11:21.938Z,21.83
2022-09-30T14:14:05.329Z,21.21
2022-09-30T14:17:09.223Z,21.34
2022-09-30T14:19:59.626Z,21.45
2022-09-30T14:22:30.413Z,21.32
2022-09-30T14:24:59.546Z,20.60
2022-09-30T14:27:45.750Z,20.84
2022-09-30T14:30:19.090Z,20.28
2022-09-30T14:32:51.088Z,19.71
2022-09-30T14:38:14.465Z,20.09
2022-09-30T14:40:51.933Z,20.19
2022-09-30T14:43:36.673Z,19.75
2022-09-30T14:46:10.026Z,19.43
2022-09-30T14:48:42.198Z,19.48
2022-09-30T14:51:13.538Z,19.26
2022-09-30T14:53:43.325Z,19.05
2022-09-30T14:56:22.346Z,19.25
2022-09-30T14:58:52.304Z,19.60
2022-09-30T15:01:23.254Z,19.38
2022-09-30T15:03:55.473Z,19.58
2022-09-30T15:06:28.257Z,19.86
2022-09-30T15:09:03.526Z,19.88
2022-09-30T15:11:37.325Z,18.93
2022-09-30T15:14:11.273Z,19.51
2022-09-30T15:16:47.306Z,20.18
2022-09-30T15:19:21.153Z,20.13
2022-09-30T15:21:51.267Z,20.06
2022-09-30T15:24:21.332Z,19.91
2022-09-30T15:26:51.219Z,19.97
2022-09-30T15:29:19.091Z,19.74
2022-09-30T15:31:50.390Z,19.54
2022-09-30T15:34:24.025Z,19.75
2022-09-30T15:37:00.110Z,19.26
2022-09-30T15:39:50.491Z,19.38
2022-09-30T15:42:32.309Z,18.70
2022-09-30T15:45:00.109Z,18.98
2022-09-30T15:47:29.550Z,18.23
2022-09-30T15:49:58.845Z,18.61
2022-09-30T15:52:37.591Z,18.61
2022-09-30T15:55:36.921Z,18.54
2022-09-30T15:58:05.508Z,18.18
2022-09-30T16:00:44.085Z,17.94
2022-09-30T16:03:30.996Z,17.79
2022-09-30T16:06:13.628Z,17.89
2022-09-30T16:08:44.887Z,17.43
2022-09-30T16:11:21.116Z,17.88
2022-09-30T16:13:50.332Z,17.93
2022-09-30T16:16:25.200Z,17.52
2022-09-30T16:18:55.152Z,17.53
2022-09-30T16:21:44.419Z,17.66
2022-09-30T16:24:44.047Z,17.56
2022-09-30T16:27:31.656Z,17.30
2022-09-30T16:30:00.192Z,16.92
2022-09-30T16:32:32.749Z,16.95
2022-09-30T16:35:00.789Z,16.51
2022-09-30T16:37:30.283Z,16.36
2022-09-30T16:40:08.537Z,16.27
2022-09-30T16:42:36.659Z,15.65
2022-09-30T16:45:04.946Z,15.57
2022-09-30T16:47:32.679Z,15.26
2022-09-30T16:50:00.864Z,14.91
2022-09-30T16:52:30.026Z,14.61
2022-09-30T16:54:57.828Z,14.57
2022-09-30T16:57:25.898Z,14.36
2022-09-30T16:59:53.645Z,14.18
2022-09-30T17:02:21.907Z,13.96
2022-09-30T17:04:49.750Z,13.84
2022-09-30T17:07:18.182Z,13.70
2022-09-30T17:09:47.414Z,13.51
2022-09-30T17:12:15.272Z,13.43
2022-09-30T17:14:43.755Z,13.35
2022-09-30T17:17:13.624Z,13.25
2022-09-30T17:19:42.157Z,13.18
2022-09-30T17:22:10.048Z,13.02
2022-09-30T17:24:37.813Z,12.89
2022-09-30T17:27:08.087Z,12.75
2022-09-30T17:29:41.829Z,12.60
2022-09-30T17:32:10.866Z,12.46
2022-09-30T17:34:38.990Z,12.43
2022-09-30T17:39:35.279Z,12.13
2022-09-30T17:42:20.869Z,12.05
2022-09-30T17:44:50.196Z,11.92
2022-09-30T17:47:18.683Z,11.80
2022-09-30T17:49:46.462Z,11.79
2022-09-30T17:52:14.941Z,11.72
2022-09-30T17:54:42.875Z,11.65
2022-09-30T17:57:11.216Z,11.42
2022-09-30T17:59:39.041Z,11.36
2022-09-30T18:02:11.206Z,11.36
2022-09-30T18:04:39.072Z,11.20
2022-09-30T18:07:08.450Z,11.20
2022-09-30T18:09:37.216Z,11.15
2022-09-30T18:12:06.536Z,11.18
2022-09-30T18:14:35.876Z,10.95
2022-09-30T18:17:05.845Z,10.96
2022-09-30T18:19:35.689Z,11.01
2022-09-30T18:22:04.198Z,10.97
2022-09-30T18:24:49.426Z,10.88
2022-09-30T18:27:17.574Z,10.73
2022-09-30T18:29:45.572Z,10.70
2022-09-30T18:32:13.664Z,10.70
2022-09-30T18:34:42.760Z,10.55
2022-09-30T18:37:11.403Z,10.53
2022-09-30T18:39:39.814Z,10.52
2022-09-30T18:42:07.858Z,10.45
2022-09-30T18:44:37.638Z,10.44
2022-09-30T18:47:06.393Z,10.28
2022-09-30T18:49:34.244Z,10.18
2022-09-30T18:52:04.902Z,10.15
2022-09-30T18:54:33.720Z,10.08
2022-09-30T18:57:02.390Z,10.10
2022-09-30T18:59:30.120Z,10.09
2022-09-30T19:02:00.655Z,10.01
2022-09-30T19:04:29.020Z,9.92
2022-09-30T19:06:57.534Z,9.90
2022-09-30T19:09:27.117Z,9.75
2022-09-30T19:11:55.880Z,9.63
2022-09-30T19:14:24.610Z,9.61
2022-09-30T19:16:52.509Z,9.56
2022-09-30T19:19:22.768Z,9.54
2022-09-30T19:21:51.029Z,9.50
2022-09-30T19:24:18.975Z,9.42
2022-09-30T19:26:48.798Z,9.37
2022-09-30T19:29:18.403Z,9.39
2022-09-30T19:31:46.976Z,9.43
2022-09-30T19:34:27.776Z,9.25
2022-09-30T19:37:00.208Z,9.25
2022-09-30T19:39:41.300Z,9.18
2022-09-30T19:42:18.617Z,9.05
2022-09-30T19:44:46.532Z,8.99
2022-09-30T19:47:15.186Z,9.09
2022-09-30T19:49:43.051Z,9.03
2022-09-30T19:52:18.888Z,9.07
2022-09-30T19:54:48.482Z,8.99
2022-09-30T19:57:17.624Z,8.91
2022-09-30T19:59:45.886Z,8.75
2022-09-30T20:02:13.720Z,8.86
2022-09-30T20:04:44.082Z,8.65
2022-09-30T20:07:12.047Z,8.57
2022-09-30T20:09:40.215Z,8.67
2022-09-30T20:12:07.998Z,8.68
2022-09-30T20:14:54.904Z,8.58
2022-09-30T20:17:22.852Z,8.49
2022-09-30T20:20:05.103Z,8.36
2022-09-30T20:22:33.367Z,8.35
2022-09-30T20:25:01.120Z,8.27
2022-09-30T20:27:31.461Z,8.06
2022-09-30T20:30:01.173Z,8.17
2022-09-30T20:32:30.779Z,8.29
2022-09-30T20:34:59.144Z,8.24
2022-09-30T20:37:27.397Z,8.35
2022-09-30T20:39:57.071Z,8.30
2022-09-30T20:42:28.139Z,8.36
2022-09-30T20:45:01.564Z,8.28
2022-09-30T20:47:31.293Z,8.14
2022-09-30T20:49:59.522Z,8.09
2022-09-30T20:52:29.786Z,8.05
2022-09-30T20:55:00.751Z,8.09
2022-09-30T20:57:30.046Z,8.01
2022-09-30T20:59:59.219Z,8.07
2022-09-30T21:02:29.431Z,8.09
2022-09-30T21:04:59.733Z,8.03
2022-09-30T21:07:28.658Z,7.93
2022-09-30T21:09:57.757Z,8.00
2022-09-30T21:12:25.701Z,7.93
2022-09-30T21:14:54.320Z,7.75
2022-09-30T21:17:22.049Z,7.90
2022-09-30T21:19:50.394Z,7.91
2022-09-30T21:22:20.275Z,7.83
2022-09-30T21:24:48.606Z,7.72
2022-09-30T21:27:16.406Z,7.62
2022-09-30T21:29:44.652Z,7.67
2022-09-30T21:32:12.905Z,7.74
2022-09-30T21:34:41.545Z,7.69
2022-09-30T21:37:09.809Z,7.58
2022-09-30T21:39:39.037Z,7.64
2022-09-30T21:42:07.492Z,7.50
2022-09-30T21:44:35.735Z,7.46
2022-09-30T21:47:03.648Z,7.21
2022-09-30T21:49:31.584Z,7.46
2022-09-30T21:52:00.081Z,7.22
2022-09-30T21:54:29.142Z,7.31
2022-09-30T21:56:58.350Z,7.36
2022-09-30T21:59:26.634Z,7.39
2022-09-30T22:01:54.922Z,7.35
2022-09-30T22:04:22.850Z,7.13
2022-09-30T22:06:50.740Z,7.30
2022-09-30T22:09:19.436Z,7.11
2022-09-30T22:11:48.561Z,7.04
2022-09-30T22:14:18.540Z,6.86
2022-09-30T22:16:47.215Z,6.89
2022-09-30T22:19:15.182Z,6.82
2022-09-30T22:21:43.990Z,6.88
2022-09-30T22:24:12.303Z,6.87
2022-09-30T22:26:42.218Z,6.78
2022-09-30T22:29:13.224Z,6.87
2022-09-30T22:31:42.861Z,6.55
2022-09-30T22:34:32.121Z,6.53
2022-09-30T22:37:18.898Z,6.71
2022-09-30T22:39:46.775Z,6.74
2022-09-30T22:42:14.587Z,6.75
2022-09-30T22:44:44.505Z,6.86
2022-09-30T22:47:14.473Z,6.80
2022-09-30T22:49:43.408Z,6.74
2022-09-30T22:52:11.276Z,6.70
2022-09-30T22:54:39.937Z,6.70
2022-09-30T22:57:10.219Z,6.69
2022-09-30T22:59:38.238Z,6.73
2022-09-30T23:02:06.390Z,6.76
2022-09-30T23:04:36.586Z,6.76
2022-09-30T23:07:05.761Z,6.72
2022-09-30T23:09:33.714Z,6.72
2022-09-30T23:12:02.198Z,6.67
2022-09-30T23:14:30.587Z,6.73
2022-09-30T23:16:58.442Z,6.72
2022-09-30T23:19:26.863Z,6.70
2022-09-30T23:21:56.945Z,6.71
2022-09-30T23:24:24.823Z,6.53
2022-09-30T23:26:52.776Z,6.59
2022-09-30T23:29:21.399Z,6.52
2022-09-30T23:31:49.808Z,6.57
2022-09-30T23:34:18.502Z,6.49
2022-09-30T23:36:47.250Z,6.43
2022-09-30T23:39:19.550Z,6.49
2022-09-30T23:41:49.041Z,6.40
2022-09-30T23:44:18.891Z,6.39
2022-09-30T23:47:01.886Z,6.34
2022-09-30T23:49:32.431Z,6.52
2022-09-30T23:52:01.148Z,6.35
2022-09-30T23:54:30.482Z,6.53
2022-09-30T23:56:59.100Z,6.65
2022-09-30T23:59:26.997Z,6.64
